Time;durP1;ratioP1;P1;durP2;ratioP2;P2;SDS_P1;SDS_P2;PMS_P1;PMS_P2;Temp;Humidity;BMP_temperature;BMP_pressure;BME280_temperature;BME280_humidity;BME280_pressure;Samples;Min_cycle;Max_cycle;Signal;HPM_P1;HPM_P2
2022/08/26 00:01:28;;;;;;;;;;;22.00;99.90;;;;;;4990748;28;20413;-72
2022/08/26 00:03:55;;;;;;;;;;;22.00;99.90;;;;;;5004106;28;19926;-71
2022/08/26 00:06:22;;;;;;;;;;;21.90;99.90;;;;;;4986341;28;19929;-71
2022/08/26 00:08:48;;;;;;;;;;;21.90;99.90;;;;;;4992393;28;19948;-70
2022/08/26 00:11:15;;;;;;;;;;;21.90;99.90;;;;;;4996088;28;20038;-71
2022/08/26 00:13:42;;;;;;;;;;;21.80;99.90;;;;;;4990960;28;19926;-71
2022/08/26 00:16:10;;;;;;;;;;;21.80;99.90;;;;;;4992494;28;19934;-71
2022/08/26 00:18:38;;;;;;;;;;;21.70;99.90;;;;;;4990879;28;19926;-72
2022/08/26 00:21:05;;;;;;;;;;;21.70;99.90;;;;;;4997594;28;19934;-72
2022/08/26 00:23:32;;;;;;;;;;;21.60;99.90;;;;;;4991857;28;19926;-71
2022/08/26 00:25:59;;;;;;;;;;;21.60;99.90;;;;;;5003752;28;19995;-71
2022/08/26 00:28:26;;;;;;;;;;;21.50;99.90;;;;;;4996852;28;19948;-70
2022/08/26 00:30:52;;;;;;;;;;;21.50;99.90;;;;;;4996628;28;19925;-71
2022/08/26 00:33:21;;;;;;;;;;;21.50;99.90;;;;;;5000420;28;20464;-71
2022/08/26 00:35:49;;;;;;;;;;;21.40;99.90;;;;;;4997992;28;20390;-71
2022/08/26 00:38:16;;;;;;;;;;;21.50;99.90;;;;;;4994087;28;19925;-72
2022/08/26 00:40:44;;;;;;;;;;;21.50;99.90;;;;;;4993562;28;19933;-71
2022/08/26 00:43:11;;;;;;;;;;;21.40;99.90;;;;;;4995389;28;19930;-71
2022/08/26 00:45:39;;;;;;;;;;;21.40;99.90;;;;;;4996033;28;20413;-71
2022/08/26 00:48:07;;;;;;;;;;;21.40;99.90;;;;;;4989018;28;19933;-71
2022/08/26 00:50:37;;;;;;;;;;;21.30;99.90;;;;;;4996892;28;19931;-71
2022/08/26 00:53:20;;;;;;;;;;;21.30;99.90;;;;;;5001596;28;20293;-71
2022/08/26 00:55:49;;;;;;;;;;;21.30;99.90;;;;;;5002610;28;20028;-72
2022/08/26 00:58:16;;;;;;;;;;;21.40;99.90;;;;;;4995700;28;19926;-71
2022/08/26 01:00:43;;;;;;;;;;;21.40;99.90;;;;;;4994823;28;20369;-71
2022/08/26 01:03:11;;;;;;;;;;;21.40;99.90;;;;;;4993613;28;19930;-70
2022/08/26 01:05:40;;;;;;;;;;;21.40;99.90;;;;;;5001348;28;20401;-70
2022/08/26 01:08:07;;;;;;;;;;;21.30;99.90;;;;;;5006652;28;19926;-71
2022/08/26 01:10:34;;;;;;;;;;;21.30;99.90;;;;;;4995904;28;19925;-71
2022/08/26 01:13:02;;;;;;;;;;;21.30;99.90;;;;;;4993453;28;20337;-71
2022/08/26 01:15:30;;;;;;;;;;;21.30;99.90;;;;;;4994049;28;19926;-71
2022/08/26 01:17:57;;;;;;;;;;;21.30;99.90;;;;;;4996111;28;19925;-71
2022/08/26 01:20:27;;;;;;;;;;;21.20;99.90;;;;;;4995618;28;19937;-71
2022/08/26 01:22:57;;;;;;;;;;;21.20;99.90;;;;;;5000852;28;19926;-71
2022/08/26 01:25:26;;;;;;;;;;;21.20;99.90;;;;;;5001189;28;19929;-71
2022/08/26 01:27:54;;;;;;;;;;;21.20;99.90;;;;;;4993045;28;19926;-71
2022/08/26 01:30:20;;;;;;;;;;;21.10;99.90;;;;;;4993266;28;19925;-71
2022/08/26 01:32:49;;;;;;;;;;;21.20;99.90;;;;;;4995510;28;19926;-71
2022/08/26 01:35:16;;;;;;;;;;;21.10;99.90;;;;;;4995193;28;19926;-69
2022/08/26 01:37:42;;;;;;;;;;;21.10;99.90;;;;;;4993076;28;20388;-71
2022/08/26 01:40:14;;;;;;;;;;;21.10;99.90;;;;;;4997814;28;19934;-70
2022/08/26 01:42:41;;;;;;;;;;;21.10;99.90;;;;;;5000717;28;19925;-71
2022/08/26 01:45:10;;;;;;;;;;;21.10;99.90;;;;;;4993349;28;19933;-71
2022/08/26 01:47:38;;;;;;;;;;;21.00;99.90;;;;;;5002573;28;19933;-71
2022/08/26 01:50:08;;;;;;;;;;;21.00;99.90;;;;;;4995065;28;19929;-71
2022/08/26 01:52:37;;;;;;;;;;;21.00;99.90;;;;;;4997516;28;19973;-71
2022/08/26 01:55:04;;;;;;;;;;;21.00;99.90;;;;;;4987960;28;19925;-71
2022/08/26 01:57:34;;;;;;;;;;;21.00;99.90;;;;;;4996438;28;20301;-70
2022/08/26 02:00:01;;;;;;;;;;;21.00;99.90;;;;;;4999868;28;19930;-71
2022/08/26 02:02:28;;;;;;;;;;;21.00;99.90;;;;;;4992861;28;20416;-71
2022/08/26 02:04:58;;;;;;;;;;;21.00;99.90;;;;;;4996035;28;19925;-71
2022/08/26 02:07:25;;;;;;;;;;;21.00;99.90;;;;;;4998957;28;20397;-71
2022/08/26 02:09:52;;;;;;;;;;;21.00;99.90;;;;;;4994508;28;19980;-71
2022/08/26 02:12:19;;;;;;;;;;;21.00;99.90;;;;;;4989183;28;20398;-71
2022/08/26 02:14:50;;;;;;;;;;;21.00;99.90;;;;;;5007765;28;19926;-70
2022/08/26 02:17:18;;;;;;;;;;;20.90;99.90;;;;;;4989296;28;19957;-71
2022/08/26 02:19:46;;;;;;;;;;;20.90;99.90;;;;;;4994074;28;19926;-71
2022/08/26 02:22:14;;;;;;;;;;;20.90;99.90;;;;;;5009244;28;19926;-71
2022/08/26 02:24:46;;;;;;;;;;;20.90;99.90;;;;;;4996158;28;19925;-71
2022/08/26 02:27:13;;;;;;;;;;;20.90;99.90;;;;;;4997106;28;19925;-71
2022/08/26 02:29:43;;;;;;;;;;;20.90;99.90;;;;;;4995228;28;20012;-71
2022/08/26 02:32:11;;;;;;;;;;;20.90;99.90;;;;;;4999719;28;19930;-71
2022/08/26 02:34:38;;;;;;;;;;;20.90;99.90;;;;;;4993401;28;19926;-71
2022/08/26 02:37:06;;;;;;;;;;;20.90;99.90;;;;;;4991970;28;19930;-71
2022/08/26 02:39:33;;;;;;;;;;;20.90;99.90;;;;;;4999045;28;20353;-71
2022/08/26 02:42:00;;;;;;;;;;;20.90;99.90;;;;;;4994900;28;19932;-70
2022/08/26 02:44:27;;;;;;;;;;;20.90;99.90;;;;;;5010521;28;19991;-71
2022/08/26 02:46:54;;;;;;;;;;;20.90;99.90;;;;;;5001541;28;19926;-71
2022/08/26 02:49:23;;;;;;;;;;;20.90;99.90;;;;;;4995066;28;19929;-71
2022/08/26 02:51:50;;;;;;;;;;;20.90;99.90;;;;;;5005052;28;20035;-71
2022/08/26 02:54:17;;;;;;;;;;;20.90;99.90;;;;;;5007969;28;19933;-71
2022/08/26 02:56:44;;;;;;;;;;;20.80;99.90;;;;;;4995772;28;19930;-71
2022/08/26 02:59:12;;;;;;;;;;;20.80;99.90;;;;;;4997673;28;19930;-71
2022/08/26 03:01:39;;;;;;;;;;;20.80;99.90;;;;;;5003769;28;19933;-71
2022/08/26 03:04:07;;;;;;;;;;;20.80;99.90;;;;;;4991574;28;19926;-71
2022/08/26 03:06:35;;;;;;;;;;;20.80;99.90;;;;;;5034846;22;19933;-71
2022/08/26 03:09:02;;;;;;;;;;;20.80;99.90;;;;;;5010458;28;19925;-70
2022/08/26 03:11:29;;;;;;;;;;;20.80;99.90;;;;;;5013987;28;19968;-71
2022/08/26 03:13:56;;;;;;;;;;;20.70;99.90;;;;;;5011165;28;20043;-71
2022/08/26 03:16:23;;;;;;;;;;;20.70;99.90;;;;;;5017548;28;20087;-70
2022/08/26 03:18:50;;;;;;;;;;;20.70;99.90;;;;;;5010294;28;19975;-69
2022/08/26 03:21:17;;;;;;;;;;;20.80;99.90;;;;;;5013566;28;19996;-71
2022/08/26 03:23:46;;;;;;;;;;;20.80;99.90;;;;;;5011023;28;19972;-70
2022/08/26 03:26:14;;;;;;;;;;;20.70;99.90;;;;;;5005968;28;20317;-70
2022/08/26 03:30:38;;;;;;;;;;;20.60;99.90;;;;;;5010777;28;19925;-70
2022/08/26 03:31:26;;;;;;;;;;;20.60;99.90;;;;;;5010629;28;20338;-70
2022/08/26 03:33:53;;;;;;;;;;;20.60;99.90;;;;;;5010883;28;20456;-70
2022/08/26 03:36:21;;;;;;;;;;;20.60;99.90;;;;;;5011040;28;19930;-70
2022/08/26 03:38:49;;;;;;;;;;;20.60;99.90;;;;;;5015341;28;19926;-69
2022/08/26 03:41:16;;;;;;;;;;;20.60;99.90;;;;;;5012952;28;19929;-67
2022/08/26 03:43:43;;;;;;;;;;;20.60;99.90;;;;;;5016411;28;20020;-70
2022/08/26 03:46:10;;;;;;;;;;;20.60;99.90;;;;;;5018026;28;19929;-70
2022/08/26 03:48:37;;;;;;;;;;;20.60;99.90;;;;;;5009986;28;19925;-70
2022/08/26 03:51:06;;;;;;;;;;;20.60;99.90;;;;;;5014477;28;19925;-70
2022/08/26 03:53:32;;;;;;;;;;;20.60;99.90;;;;;;5020886;28;20285;-70
2022/08/26 03:56:01;;;;;;;;;;;20.60;99.90;;;;;;5010496;28;19933;-70
2022/08/26 03:58:28;;;;;;;;;;;20.60;99.90;;;;;;5017588;28;19925;-70
2022/08/26 04:00:54;;;;;;;;;;;20.50;99.90;;;;;;5022012;28;20289;-71
2022/08/26 04:03:56;;;;;;;;;;;20.60;99.90;;;;;;5018999;28;19929;-70
2022/08/26 04:06:08;;;;;;;;;;;20.60;99.90;;;;;;5013142;28;19929;-71
2022/08/26 04:08:35;;;;;;;;;;;20.60;99.90;;;;;;5011185;28;20025;-70
2022/08/26 04:11:03;;;;;;;;;;;20.60;99.90;;;;;;5013306;28;19925;-70
2022/08/26 04:13:31;;;;;;;;;;;20.60;99.90;;;;;;5014778;28;20289;-72
2022/08/26 04:15:58;;;;;;;;;;;20.60;99.90;;;;;;5000872;28;19929;-72
2022/08/26 04:18:26;;;;;;;;;;;20.60;99.90;;;;;;5012626;28;19936;-72
2022/08/26 04:20:53;;;;;;;;;;;20.60;99.90;;;;;;5014038;28;19925;-71
2022/08/26 04:23:21;;;;;;;;;;;20.50;99.90;;;;;;5014309;28;19929;-72
2022/08/26 04:25:47;;;;;;;;;;;20.50;99.90;;;;;;5013948;28;20320;-72
2022/08/26 04:28:16;;;;;;;;;;;20.50;99.90;;;;;;5012284;28;19925;-70
2022/08/26 04:30:42;;;;;;;;;;;20.40;99.90;;;;;;5009990;28;19925;-69
2022/08/26 04:33:12;;;;;;;;;;;20.40;99.90;;;;;;5013759;28;20313;-69
2022/08/26 04:35:39;;;;;;;;;;;20.40;99.90;;;;;;5011402;28;20011;-70
2022/08/26 04:38:05;;;;;;;;;;;20.50;99.90;;;;;;5013665;28;19925;-70
2022/08/26 04:40:32;;;;;;;;;;;20.40;99.90;;;;;;5010946;28;19949;-70
2022/08/26 04:42:59;;;;;;;;;;;20.40;99.90;;;;;;5013803;28;19929;-71
2022/08/26 04:45:27;;;;;;;;;;;20.50;99.90;;;;;;5033200;28;19926;-70
2022/08/26 04:47:55;;;;;;;;;;;20.50;99.90;;;;;;5013108;28;19940;-71
2022/08/26 04:50:24;;;;;;;;;;;20.50;99.90;;;;;;5013018;28;19929;-68
2022/08/26 04:52:51;;;;;;;;;;;20.40;99.90;;;;;;5012352;28;19930;-70
2022/08/26 04:55:18;;;;;;;;;;;20.40;99.90;;;;;;5012234;28;19929;-69
2022/08/26 04:57:44;;;;;;;;;;;20.40;99.90;;;;;;5011809;28;19930;-71
2022/08/26 05:00:12;;;;;;;;;;;20.40;99.90;;;;;;5012139;28;19925;-71
2022/08/26 05:02:40;;;;;;;;;;;20.40;99.90;;;;;;5007644;28;19932;-70
2022/08/26 05:05:08;;;;;;;;;;;20.40;99.90;;;;;;5012341;28;20128;-68
2022/08/26 05:07:35;;;;;;;;;;;20.30;99.90;;;;;;5011834;28;19925;-70
2022/08/26 05:10:02;;;;;;;;;;;20.30;99.90;;;;;;5009746;28;19926;-77
2022/08/26 05:12:29;;;;;;;;;;;20.30;99.90;;;;;;5012026;28;19925;-76
2022/08/26 05:14:56;;;;;;;;;;;20.40;99.90;;;;;;5009114;28;20356;-71
2022/08/26 05:17:23;;;;;;;;;;;20.40;99.90;;;;;;5011697;28;19979;-71
2022/08/26 05:19:51;;;;;;;;;;;20.30;99.90;;;;;;5011315;28;19926;-71
2022/08/26 05:22:18;;;;;;;;;;;20.40;99.90;;;;;;5011726;28;19930;-69
2022/08/26 05:24:45;;;;;;;;;;;20.40;99.90;;;;;;5006442;28;19934;-67
2022/08/26 05:27:12;;;;;;;;;;;20.40;99.90;;;;;;5011101;28;19933;-68
2022/08/26 05:29:39;;;;;;;;;;;20.40;99.90;;;;;;5011177;28;19961;-71
2022/08/26 05:32:06;;;;;;;;;;;20.50;99.90;;;;;;5011858;28;19926;-69
2022/08/26 05:34:33;;;;;;;;;;;20.50;99.90;;;;;;5011593;28;20373;-73
2022/08/26 05:37:01;;;;;;;;;;;20.50;99.90;;;;;;5013194;28;19926;-79
2022/08/26 05:39:28;;;;;;;;;;;20.50;99.90;;;;;;5013041;28;19926;-78
2022/08/26 05:41:55;;;;;;;;;;;20.50;99.90;;;;;;5014003;28;19925;-73
2022/08/26 05:44:22;;;;;;;;;;;20.50;99.90;;;;;;5014476;28;19929;-73
2022/08/26 05:46:49;;;;;;;;;;;20.40;99.90;;;;;;5008339;28;20064;-73
2022/08/26 05:49:16;;;;;;;;;;;20.40;99.90;;;;;;5006661;28;19932;-72
2022/08/26 05:51:45;;;;;;;;;;;20.40;99.90;;;;;;5007847;28;19947;-72
2022/08/26 05:54:13;;;;;;;;;;;20.50;99.90;;;;;;5009911;28;19930;-72
2022/08/26 05:56:40;;;;;;;;;;;20.50;99.90;;;;;;5009850;28;19925;-72
2022/08/26 05:59:12;;;;;;;;;;;20.60;99.90;;;;;;5008938;28;19932;-72
2022/08/26 06:01:39;;;;;;;;;;;20.60;99.90;;;;;;5010203;28;19925;-73
2022/08/26 06:04:06;;;;;;;;;;;20.60;99.90;;;;;;5009900;28;19961;-72
2022/08/26 06:06:33;;;;;;;;;;;20.70;99.90;;;;;;5005101;28;19926;-72
2022/08/26 06:09:02;;;;;;;;;;;20.70;99.90;;;;;;5010392;28;19926;-72
2022/08/26 06:11:31;;;;;;;;;;;20.70;99.90;;;;;;5009417;28;19925;-72
2022/08/26 06:13:59;;;;;;;;;;;20.70;99.90;;;;;;5006672;28;19925;-70
2022/08/26 06:16:26;;;;;;;;;;;20.70;99.90;;;;;;5011088;28;19956;-73
2022/08/26 06:18:53;;;;;;;;;;;20.60;99.90;;;;;;5007411;28;19926;-73
2022/08/26 06:21:21;;;;;;;;;;;20.70;99.90;;;;;;5005910;28;19933;-73
2022/08/26 06:26:35;;;;;;;;;;;20.80;99.90;;;;;;5011032;28;19943;-73
2022/08/26 06:29:02;;;;;;;;;;;20.70;99.90;;;;;;5008892;28;19991;-72
2022/08/26 06:31:29;;;;;;;;;;;20.70;99.90;;;;;;5010696;28;19932;-74
2022/08/26 06:33:57;;;;;;;;;;;20.70;99.90;;;;;;5010608;28;19929;-73
2022/08/26 06:36:30;;;;;;;;;;;20.60;99.90;;;;;;5007467;28;20016;-72
2022/08/26 06:39:00;;;;;;;;;;;20.60;99.90;;;;;;5005743;28;19925;-73
2022/08/26 06:41:27;;;;;;;;;;;20.60;99.90;;;;;;5010174;28;19948;-73
2022/08/26 06:43:56;;;;;;;;;;;20.70;99.90;;;;;;5009657;28;19925;-72
2022/08/26 06:46:23;;;;;;;;;;;20.70;99.90;;;;;;5010349;28;19926;-75
2022/08/26 06:48:50;;;;;;;;;;;20.70;99.90;;;;;;5009846;28;19925;-71
2022/08/26 06:51:17;;;;;;;;;;;20.80;99.90;;;;;;5012784;28;19933;-73
2022/08/26 06:53:46;;;;;;;;;;;20.80;99.90;;;;;;5010460;28;19926;-73
2022/08/26 06:56:14;;;;;;;;;;;20.80;99.90;;;;;;5017985;28;19960;-73
2022/08/26 06:58:41;;;;;;;;;;;20.80;99.90;;;;;;5010163;28;19926;-73
2022/08/26 07:01:16;;;;;;;;;;;20.80;99.90;;;;;;5009921;28;19988;-75
2022/08/26 07:03:43;;;;;;;;;;;20.80;99.90;;;;;;5010777;28;19932;-73
2022/08/26 07:06:09;;;;;;;;;;;20.80;99.90;;;;;;5010431;28;19925;-73
2022/08/26 07:08:36;;;;;;;;;;;20.80;99.90;;;;;;5009983;28;19933;-75
2022/08/26 07:11:04;;;;;;;;;;;20.80;99.90;;;;;;5021883;28;19925;-73
2022/08/26 07:13:31;;;;;;;;;;;20.80;99.90;;;;;;5008317;28;19933;-72
2022/08/26 07:15:58;;;;;;;;;;;20.90;99.90;;;;;;5011037;28;19932;-72
2022/08/26 07:18:26;;;;;;;;;;;20.90;99.90;;;;;;5010264;28;19937;-74
2022/08/26 07:20:53;;;;;;;;;;;20.90;99.90;;;;;;5010178;28;19925;-72
2022/08/26 07:23:20;;;;;;;;;;;20.90;99.90;;;;;;5007087;28;19934;-73
2022/08/26 07:25:47;;;;;;;;;;;20.90;99.90;;;;;;5009560;28;19936;-71
2022/08/26 07:28:13;;;;;;;;;;;21.00;99.90;;;;;;5009909;28;19925;-73
2022/08/26 07:30:40;;;;;;;;;;;20.90;99.90;;;;;;5010040;28;19929;-74
2022/08/26 07:33:07;;;;;;;;;;;20.90;99.90;;;;;;5009176;28;19968;-73
2022/08/26 07:35:35;;;;;;;;;;;20.80;99.90;;;;;;5009774;28;19926;-73
2022/08/26 07:38:02;;;;;;;;;;;20.80;99.90;;;;;;5009663;28;19925;-74
2022/08/26 07:40:29;;;;;;;;;;;20.70;99.90;;;;;;5009779;28;19926;-73
2022/08/26 07:42:56;;;;;;;;;;;20.70;99.90;;;;;;5006213;28;19925;-74
2022/08/26 07:45:23;;;;;;;;;;;20.70;99.90;;;;;;5010086;28;19929;-72
2022/08/26 07:47:50;;;;;;;;;;;20.60;99.90;;;;;;5009923;28;19934;-73
2022/08/26 07:50:17;;;;;;;;;;;20.70;99.90;;;;;;5012230;28;19933;-73
2022/08/26 07:52:45;;;;;;;;;;;20.70;99.90;;;;;;5012845;28;19929;-72
2022/08/26 07:55:12;;;;;;;;;;;20.80;99.90;;;;;;5012631;28;19925;-73
2022/08/26 07:57:39;;;;;;;;;;;20.90;99.90;;;;;;5009728;28;20397;-72
2022/08/26 08:00:07;;;;;;;;;;;20.90;99.90;;;;;;5010484;28;19925;-72
2022/08/26 08:02:39;;;;;;;;;;;20.90;99.90;;;;;;5014116;28;19926;-73
2022/08/26 08:05:06;;;;;;;;;;;20.90;99.90;;;;;;5009742;28;19925;-72
2022/08/26 08:07:33;;;;;;;;;;;21.00;99.90;;;;;;5011499;28;19929;-71
2022/08/26 08:10:01;;;;;;;;;;;21.00;99.90;;;;;;5012686;28;19925;-73
2022/08/26 08:12:28;;;;;;;;;;;21.10;99.90;;;;;;5009473;28;20417;-74
2022/08/26 08:14:55;;;;;;;;;;;21.00;99.90;;;;;;5009785;28;19926;-71
2022/08/26 08:17:21;;;;;;;;;;;21.00;99.90;;;;;;5010095;28;19929;-72
2022/08/26 08:19:48;;;;;;;;;;;21.00;99.90;;;;;;5012189;28;19926;-72
2022/08/26 08:22:16;;;;;;;;;;;21.10;99.90;;;;;;5010685;28;19926;-74
2022/08/26 08:24:43;;;;;;;;;;;21.10;99.90;;;;;;5006981;28;19929;-73
2022/08/26 08:27:11;;;;;;;;;;;21.20;99.90;;;;;;5009390;28;20400;-73
2022/08/26 08:29:38;;;;;;;;;;;21.20;99.90;;;;;;5008858;28;19926;-73
2022/08/26 08:32:05;;;;;;;;;;;21.20;99.90;;;;;;5009498;28;19929;-73
2022/08/26 08:34:32;;;;;;;;;;;21.20;99.90;;;;;;5009434;28;20370;-73
2022/08/26 08:36:59;;;;;;;;;;;21.20;99.90;;;;;;5009853;28;19933;-73
2022/08/26 08:39:26;;;;;;;;;;;21.20;99.90;;;;;;5009138;28;19934;-73
2022/08/26 08:42:10;;;;;;;;;;;21.20;99.90;;;;;;5010351;28;20017;-74
2022/08/26 08:44:40;;;;;;;;;;;21.20;99.90;;;;;;4996746;28;19925;-75
2022/08/26 08:47:12;;;;;;;;;;;21.30;99.90;;;;;;5014531;28;20037;-75
2022/08/26 08:49:39;;;;;;;;;;;21.30;99.90;;;;;;5017041;28;19933;-75
2022/08/26 08:52:10;;;;;;;;;;;21.40;99.90;;;;;;5014123;28;19926;-75
2022/08/26 08:54:37;;;;;;;;;;;21.40;99.90;;;;;;5012325;28;19925;-75
2022/08/26 08:57:07;;;;;;;;;;;21.50;99.90;;;;;;5011516;28;20424;-75
2022/08/26 08:59:35;;;;;;;;;;;21.50;99.90;;;;;;5011306;28;19936;-75
2022/08/26 09:02:06;;;;;;;;;;;21.60;99.90;;;;;;5012048;28;20420;-75
2022/08/26 09:04:44;;;;;;;;;;;21.70;99.90;;;;;;5019382;28;20401;-75
2022/08/26 09:07:13;;;;;;;;;;;21.70;99.90;;;;;;5006758;28;19926;-75
2022/08/26 09:09:41;;;;;;;;;;;21.90;99.90;;;;;;5007877;28;20329;-75
2022/08/26 09:12:11;;;;;;;;;;;22.00;99.90;;;;;;5011446;28;19941;-74
2022/08/26 09:14:38;;;;;;;;;;;22.20;99.90;;;;;;5011624;28;19926;-74
2022/08/26 09:17:11;;;;;;;;;;;22.20;99.90;;;;;;5011978;28;19933;-73
2022/08/26 09:19:40;;;;;;;;;;;22.20;99.90;;;;;;5011513;28;19925;-74
2022/08/26 09:22:06;;;;;;;;;;;22.10;99.90;;;;;;5011990;28;20313;-74
2022/08/26 09:24:34;;;;;;;;;;;22.00;99.90;;;;;;5012068;28;19941;-74
2022/08/26 09:27:01;;;;;;;;;;;22.00;99.90;;;;;;5012150;28;20393;-74
2022/08/26 09:29:29;;;;;;;;;;;22.00;99.90;;;;;;5011731;28;19933;-73
2022/08/26 09:32:11;;;;;;;;;;;22.00;99.90;;;;;;5008856;28;19925;-73
2022/08/26 09:34:51;;;;;;;;;;;22.00;99.90;;;;;;5011800;28;19925;-74
2022/08/26 09:37:31;;;;;;;;;;;22.00;99.90;;;;;;5011866;28;20036;-73
2022/08/26 09:40:11;;;;;;;;;;;22.00;99.90;;;;;;5011770;28;19930;-74
2022/08/26 09:42:37;;;;;;;;;;;22.10;99.90;;;;;;5026029;28;19926;-74
2022/08/26 09:45:07;;;;;;;;;;;22.20;99.90;;;;;;5014184;28;19953;-72
2022/08/26 09:47:36;;;;;;;;;;;22.20;99.90;;;;;;5013391;28;19925;-72
2022/08/26 09:50:05;;;;;;;;;;;22.10;99.90;;;;;;5012130;28;19932;-72
2022/08/26 09:52:32;;;;;;;;;;;22.10;99.90;;;;;;5018023;28;19925;-73
2022/08/26 09:55:05;;;;;;;;;;;22.10;99.90;;;;;;5011398;28;19926;-72
2022/08/26 09:57:33;;;;;;;;;;;22.10;99.90;;;;;;5010236;28;19926;-73
2022/08/26 10:00:00;;;;;;;;;;;22.10;99.90;;;;;;5011239;28;20413;-73
2022/08/26 10:02:34;;;;;;;;;;;22.00;99.90;;;;;;5015973;28;19965;-73
2022/08/26 10:05:03;;;;;;;;;;;22.00;99.90;;;;;;5007414;28;19933;-73
2022/08/26 10:07:37;;;;;;;;;;;21.90;99.90;;;;;;5014030;28;19929;-76
2022/08/26 10:10:08;;;;;;;;;;;21.90;99.90;;;;;;5008738;28;20353;-73
2022/08/26 10:12:38;;;;;;;;;;;21.90;99.90;;;;;;5007753;28;20020;-73
2022/08/26 10:15:08;;;;;;;;;;;22.00;99.90;;;;;;5008005;28;20477;-71
2022/08/26 10:17:37;;;;;;;;;;;22.10;99.90;;;;;;5010770;28;19957;-72
2022/08/26 10:20:07;;;;;;;;;;;22.20;99.90;;;;;;5010870;28;19934;-70
2022/08/26 10:22:40;;;;;;;;;;;22.20;99.90;;;;;;5006797;28;20301;-69
2022/08/26 10:25:11;;;;;;;;;;;22.30;99.90;;;;;;5007909;28;19926;-68
2022/08/26 10:27:41;;;;;;;;;;;22.50;99.90;;;;;;5010770;28;19925;-69
2022/08/26 10:30:10;;;;;;;;;;;22.60;99.90;;;;;;5010655;28;19925;-71
2022/08/26 10:32:40;;;;;;;;;;;22.60;99.90;;;;;;5010588;28;20352;-68
2022/08/26 10:35:09;;;;;;;;;;;22.50;99.90;;;;;;5010315;28;19948;-68
2022/08/26 10:37:41;;;;;;;;;;;22.40;99.90;;;;;;4993954;28;22087;-68
2022/08/26 10:40:10;;;;;;;;;;;22.30;99.90;;;;;;5007542;28;19932;-68
2022/08/26 10:42:40;;;;;;;;;;;22.20;99.90;;;;;;5010649;28;20005;-70
2022/08/26 10:45:08;;;;;;;;;;;22.20;99.90;;;;;;5012969;28;19932;-70
2022/08/26 10:47:39;;;;;;;;;;;22.00;99.90;;;;;;5009325;28;19937;-68
2022/08/26 10:50:07;;;;;;;;;;;22.10;99.90;;;;;;5010356;28;19936;-69
2022/08/26 10:52:38;;;;;;;;;;;22.20;99.90;;;;;;5009420;28;19940;-69
2022/08/26 10:55:10;;;;;;;;;;;22.20;99.90;;;;;;5009784;28;20516;-68
2022/08/26 10:57:42;;;;;;;;;;;22.30;99.90;;;;;;5007933;28;19926;-68
2022/08/26 11:02:54;;;;;;;;;;;22.20;99.90;;;;;;5009239;28;19929;-68
2022/08/26 11:05:22;;;;;;;;;;;22.10;99.90;;;;;;5009067;28;19926;-67
2022/08/26 11:07:51;;;;;;;;;;;22.10;99.90;;;;;;5009360;28;19933;-68
2022/08/26 11:10:37;;;;;;;;;;;22.20;99.90;;;;;;5009667;28;20374;-68
2022/08/26 11:13:05;;;;;;;;;;;22.20;99.90;;;;;;5012360;28;19925;-68
2022/08/26 11:16:07;;;;;;;;;;;22.20;99.90;;;;;;5009708;28;19933;-68
2022/08/26 11:18:47;;;;;;;;;;;22.20;99.90;;;;;;5006873;28;19925;-68
2022/08/26 11:21:32;;;;;;;;;;;22.10;99.90;;;;;;5009835;28;19925;-68
2022/08/26 11:23:58;;;;;;;;;;;22.00;99.90;;;;;;5002776;28;19929;-69
2022/08/26 11:26:33;;;;;;;;;;;22.00;99.90;;;;;;5009794;28;19933;-68
2022/08/26 11:29:02;;;;;;;;;;;22.00;99.90;;;;;;5009196;28;20298;-68
2022/08/26 11:31:47;;;;;;;;;;;22.00;99.90;;;;;;5009953;28;19929;-68
2022/08/26 11:34:14;;;;;;;;;;;22.00;99.90;;;;;;5009484;28;19925;-68
2022/08/26 11:36:58;;;;;;;;;;;22.10;99.90;;;;;;5004872;28;19925;-69
2022/08/26 11:39:28;;;;;;;;;;;22.00;99.90;;;;;;5006628;28;19933;-68
2022/08/26 11:41:58;;;;;;;;;;;22.00;99.90;;;;;;5012905;28;20459;-68
2022/08/26 11:44:27;;;;;;;;;;;22.00;99.90;;;;;;5012648;28;20563;-71
2022/08/26 11:46:56;;;;;;;;;;;22.00;99.90;;;;;;5011428;28;20304;-68
2022/08/26 11:49:23;;;;;;;;;;;22.10;99.90;;;;;;5009224;28;19925;-69
2022/08/26 11:51:50;;;;;;;;;;;22.10;99.90;;;;;;5009435;28;19964;-69
2022/08/26 11:54:18;;;;;;;;;;;22.20;99.90;;;;;;5009326;28;19954;-68
2022/08/26 11:56:46;;;;;;;;;;;22.40;99.90;;;;;;5008581;28;19933;-69
2022/08/26 11:59:17;;;;;;;;;;;22.40;99.90;;;;;;5006280;28;19961;-67
2022/08/26 12:01:49;;;;;;;;;;;22.40;99.90;;;;;;5021586;28;19946;-69
2022/08/26 12:04:20;;;;;;;;;;;22.50;99.90;;;;;;5009330;28;20337;-68
2022/08/26 12:06:49;;;;;;;;;;;22.50;99.90;;;;;;5006470;28;19948;-69
2022/08/26 12:09:20;;;;;;;;;;;22.50;99.90;;;;;;5023628;28;20036;-68
2022/08/26 12:11:47;;;;;;;;;;;22.40;99.90;;;;;;5009280;28;19937;-69
2022/08/26 12:14:17;;;;;;;;;;;22.30;99.90;;;;;;5009310;28;19930;-68
2022/08/26 12:16:44;;;;;;;;;;;22.30;99.90;;;;;;5009368;28;20294;-68
2022/08/26 12:19:26;;;;;;;;;;;22.30;99.90;;;;;;5008921;28;19937;-67
2022/08/26 12:21:55;;;;;;;;;;;22.20;99.90;;;;;;5012933;28;19926;-69
2022/08/26 12:24:22;;;;;;;;;;;22.10;99.90;;;;;;5012698;28;20333;-70
2022/08/26 12:26:50;;;;;;;;;;;22.10;99.90;;;;;;5012896;28;19982;-68
2022/08/26 12:29:24;;;;;;;;;;;22.10;99.90;;;;;;5012359;28;19929;-68
2022/08/26 12:31:51;;;;;;;;;;;22.10;99.90;;;;;;5012687;28;19932;-68
2022/08/26 12:34:18;;;;;;;;;;;22.10;99.90;;;;;;5027721;28;19925;-68
2022/08/26 12:36:47;;;;;;;;;;;22.20;99.90;;;;;;5012639;28;19929;-68
2022/08/26 12:39:15;;;;;;;;;;;22.10;99.90;;;;;;5010106;28;19929;-68
2022/08/26 12:41:45;;;;;;;;;;;22.20;99.90;;;;;;5012709;28;19925;-71
2022/08/26 12:44:30;;;;;;;;;;;22.20;99.90;;;;;;5012565;28;19925;-68
2022/08/26 12:47:01;;;;;;;;;;;22.20;99.90;;;;;;5010131;28;19930;-69
2022/08/26 12:49:28;;;;;;;;;;;22.20;99.90;;;;;;5012140;28;19933;-69
2022/08/26 12:51:56;;;;;;;;;;;22.20;99.90;;;;;;5012836;28;19926;-70
2022/08/26 12:54:57;;;;;;;;;;;22.10;99.90;;;;;;5012456;28;19929;-69
2022/08/26 12:57:10;;;;;;;;;;;22.10;99.90;;;;;;5012385;28;20405;-68
2022/08/26 12:59:37;;;;;;;;;;;22.10;99.90;;;;;;5011410;28;19925;-69
2022/08/26 13:02:04;;;;;;;;;;;22.10;99.90;;;;;;5004997;28;20409;-68
2022/08/26 13:04:32;;;;;;;;;;;22.00;99.90;;;;;;5009483;28;20389;-68
2022/08/26 13:07:14;;;;;;;;;;;22.00;99.90;;;;;;5011756;28;19925;-69
2022/08/26 13:09:41;;;;;;;;;;;22.00;99.90;;;;;;5024649;28;20021;-68
2022/08/26 13:12:07;;;;;;;;;;;22.00;99.90;;;;;;5025010;28;19965;-68
2022/08/26 13:14:34;;;;;;;;;;;22.10;99.90;;;;;;5009010;28;19953;-65
2022/08/26 13:17:01;;;;;;;;;;;22.40;99.90;;;;;;5008924;28;19926;-69
2022/08/26 13:19:28;;;;;;;;;;;22.70;99.90;;;;;;5007370;28;19925;-68
2022/08/26 13:21:56;;;;;;;;;;;23.00;99.90;;;;;;5024453;28;20021;-68
2022/08/26 13:24:26;;;;;;;;;;;23.40;99.90;;;;;;5011336;28;19941;-67
2022/08/26 13:26:52;;;;;;;;;;;23.70;99.90;;;;;;5006559;28;19932;-67
2022/08/26 13:29:19;;;;;;;;;;;23.60;99.90;;;;;;5010740;28;19926;-68
2022/08/26 13:31:46;;;;;;;;;;;23.80;99.90;;;;;;5011458;28;20381;-68
2022/08/26 13:34:14;;;;;;;;;;;24.00;99.90;;;;;;5008267;28;19933;-68
2022/08/26 13:36:43;;;;;;;;;;;24.20;99.90;;;;;;5013296;28;19925;-68
2022/08/26 13:39:11;;;;;;;;;;;23.90;99.90;;;;;;5012067;28;19932;-68
2022/08/26 13:41:39;;;;;;;;;;;23.90;99.90;;;;;;5015387;28;19926;-68
2022/08/26 13:44:06;;;;;;;;;;;24.00;99.90;;;;;;5015286;28;19926;-68
2022/08/26 13:46:33;;;;;;;;;;;24.40;99.90;;;;;;5013721;28;19926;-66
2022/08/26 13:49:00;;;;;;;;;;;24.50;99.90;;;;;;5016346;28;19932;-68
2022/08/26 13:51:27;;;;;;;;;;;24.70;99.90;;;;;;5012837;28;19937;-69
2022/08/26 13:53:54;;;;;;;;;;;25.10;99.90;;;;;;5009533;28;19933;-69
2022/08/26 13:56:21;;;;;;;;;;;25.20;99.90;;;;;;5025330;28;19980;-69
2022/08/26 13:58:50;;;;;;;;;;;24.90;99.90;;;;;;5011319;28;19936;-67
2022/08/26 14:01:17;;;;;;;;;;;24.40;99.90;;;;;;5011413;28;19941;-68
2022/08/26 14:03:44;;;;;;;;;;;24.20;99.90;;;;;;5011100;28;19932;-70
2022/08/26 14:06:11;;;;;;;;;;;23.90;99.90;;;;;;5011578;28;19933;-68
2022/08/26 14:08:38;;;;;;;;;;;23.60;99.90;;;;;;5010522;28;19929;-68
2022/08/26 14:11:05;;;;;;;;;;;23.70;99.90;;;;;;5011144;28;19932;-68
2022/08/26 14:13:32;;;;;;;;;;;23.60;99.90;;;;;;5010491;28;19926;-69
2022/08/26 14:16:00;;;;;;;;;;;23.40;99.90;;;;;;5010712;28;19925;-69
2022/08/26 14:18:29;;;;;;;;;;;22.90;99.90;;;;;;5008319;28;19934;-68
2022/08/26 14:20:55;;;;;;;;;;;22.50;99.90;;;;;;5006518;28;20337;-68
2022/08/26 14:23:22;;;;;;;;;;;22.30;99.90;;;;;;5011064;28;19934;-68
2022/08/26 14:25:49;;;;;;;;;;;22.10;99.90;;;;;;5012019;28;19945;-69
2022/08/26 14:28:16;;;;;;;;;;;21.80;99.90;;;;;;5010463;28;19926;-69
2022/08/26 14:30:43;;;;;;;;;;;21.60;99.90;;;;;;5010897;28;19934;-66